Time;durP1;ratioP1;P1;durP2;ratioP2;P2;SDS_P1;SDS_P2;PMS_P1;PMS_P2;Temp;Humidity;BMP_temperature;BMP_pressure;BME280_temperature;BME280_humidity;BME280_pressure;Samples;Min_cycle;Max_cycle;Signal;HPM_P1;HPM_P2
2021/04/22 00:00:20;;;;;;;8.17;5.50;;;9.40;1.00;;;;;;4819137;28;20540;-75
2021/04/22 00:02:42;;;;;;;6.43;5.27;;;;;;;;;;4817111;28;20547;-76
2021/04/22 00:05:12;;;;;;;8.23;5.53;;;9.30;1.00;;;;;;4809723;28;20563;-77
2021/04/22 00:07:34;;;;;;;14.23;6.87;;;9.30;1.00;;;;;;4816686;28;20578;-75
2021/04/22 00:09:56;;;;;;;7.60;5.50;;;;;;;;;;4818006;28;20199;-76
2021/04/22 00:12:18;;;;;;;8.57;5.80;;;;;;;;;;4819123;28;20214;-75
2021/04/22 00:14:41;;;;;;;16.63;7.50;;;9.10;1.00;;;;;;4815849;28;21034;-77
2021/04/22 00:17:07;;;;;;;13.80;6.53;;;9.20;1.00;;;;;;4817240;28;20701;-75
2021/04/22 00:19:29;;;;;;;15.93;7.37;;;;;;;;;;4818299;28;20661;-76
2021/04/22 00:21:52;;;;;;;9.67;6.43;;;9.20;1.00;;;;;;4789495;28;20227;-75
2021/04/22 00:24:14;;;;;;;11.97;6.73;;;;;;;;;;4818612;28;20245;-75
2021/04/22 00:26:36;;;;;;;15.87;7.17;;;8.90;1.00;;;;;;4814854;28;20207;-77
2021/04/22 00:28:58;;;;;;;12.53;6.97;;;9.10;1.00;;;;;;4832638;28;20211;-77
2021/04/22 00:31:21;;;;;;;7.07;6.17;;;8.30;1.00;;;;;;4817770;28;20215;-77
2021/04/22 00:33:43;;;;;;;10.93;7.37;;;;;;;;;;4818359;28;20203;-77
2021/04/22 00:36:07;;;;;;;12.47;7.63;;;8.50;1.00;;;;;;4816215;28;20207;-76
2021/04/22 00:38:29;;;;;;;13.93;7.27;;;8.90;1.00;;;;;;4816518;28;20674;-77
2021/04/22 00:40:51;;;;;;;11.50;7.30;;;8.70;1.00;;;;;;4817069;28;20572;-78
2021/04/22 00:43:16;;;;;;;9.03;6.07;;;8.70;1.00;;;;;;4817486;28;20367;-77
2021/04/22 00:45:41;;;;;;;16.83;7.57;;;8.90;1.00;;;;;;4817293;28;20605;-75
2021/04/22 00:48:06;;;;;;;11.60;8.00;;;8.60;1.00;;;;;;4798064;28;20247;-77
2021/04/22 00:50:31;;;;;;;14.03;8.23;;;8.50;1.00;;;;;;4811688;28;20624;-75
2021/04/22 00:52:55;;;;;;;10.40;7.00;;;;;;;;;;4781819;28;20625;-76
2021/04/22 00:55:18;;;;;;;10.27;6.53;;;;;;;;;;4818112;28;20192;-77
2021/04/22 00:57:40;;;;;;;16.27;7.90;;;8.50;1.00;;;;;;4812132;28;20242;-78
2021/04/22 01:00:06;;;;;;;8.27;6.50;;;9.20;1.00;;;;;;4800030;28;20248;-75
2021/04/22 01:02:28;;;;;;;13.97;8.07;;;8.40;1.00;;;;;;4816680;28;20528;-81
2021/04/22 01:04:52;;;;;;;8.47;6.47;;;8.40;1.00;;;;;;4810103;28;20195;-78
2021/04/22 01:07:14;;;;;;;10.83;6.93;;;;;;;;;;4810462;28;20199;-75
2021/04/22 01:09:36;;;;;;;19.47;8.37;;;8.60;24.80;;;;;;4814969;28;20207;-78
2021/04/22 01:12:01;;;;;;;13.10;7.30;;;8.30;6.30;;;;;;4818460;28;20753;-76
2021/04/22 01:14:23;;;;;;;9.33;7.00;;;;;;;;;;4820849;28;20214;-75
2021/04/22 01:16:45;;;;;;;18.47;8.23;;;;;;;;;;4803786;28;20196;-76
2021/04/22 01:19:07;;;;;;;10.03;6.77;;;8.20;40.00;;;;;;4794194;28;20252;-76
2021/04/22 01:21:30;;;;;;;16.57;8.47;;;8.50;47.80;;;;;;4819539;28;20203;-77
2021/04/22 01:23:53;;;;;;;11.70;7.70;;;9.00;55.10;;;;;;4820714;28;20680;-76
2021/04/22 01:26:18;;;;;;;10.17;7.13;;;8.30;62.20;;;;;;4820215;28;20204;-78
2021/04/22 01:28:40;;;;;;;20.67;9.07;;;;;;;;;;4820815;28;20715;-74
2021/04/22 01:31:02;;;;;;;18.63;8.97;;;;;;;;;;4810252;28;20749;-76
2021/04/22 01:33:26;;;;;;;14.73;8.00;;;8.20;38.30;;;;;;4809183;28;20254;-75
2021/04/22 01:35:52;;;;;;;12.10;7.67;;;8.20;66.30;;;;;;4837064;28;20195;-78
2021/04/22 01:38:15;;;;;;;10.40;7.47;;;8.20;34.40;;;;;;4821100;28;20665;-76
2021/04/22 01:40:39;;;;;;;15.17;7.83;;;8.00;57.30;;;;;;4818866;28;20215;-76
2021/04/22 01:43:01;;;;;;;11.57;7.20;;;;;;;;;;4815986;28;20219;-76
2021/04/22 01:45:24;;;;;;;11.37;6.97;;;8.30;23.80;;;;;;4808027;28;20235;-76
2021/04/22 01:47:46;;;;;;;9.23;6.53;;;;;;;;;;4806730;28;20199;-77
2021/04/22 01:50:13;;;;;;;15.37;8.07;;;8.30;1.00;;;;;;4803352;28;20196;-76
2021/04/22 01:52:35;;;;;;;17.80;8.83;;;8.00;12.70;;;;;;4816236;28;20253;-76
2021/04/22 01:54:58;;;;;;;13.30;7.37;;;8.40;1.00;;;;;;4803361;28;20712;-76
2021/04/22 01:57:20;;;;;;;9.73;6.77;;;;;;;;;;4819749;28;20221;-77
2021/04/22 01:59:42;;;;;;;10.13;6.97;;;;;;;;;;4816628;28;20580;-79
2021/04/22 02:02:04;;;;;;;7.20;6.17;;;8.20;1.00;;;;;;4803763;28;20249;-75
2021/04/22 02:04:27;;;;;;;12.97;7.47;;;8.20;1.00;;;;;;4819311;28;20614;-75
2021/04/22 02:06:49;;;;;;;21.23;8.40;;;7.90;1.00;;;;;;4802759;28;20192;-80
2021/04/22 02:09:11;;;;;;;10.03;6.57;;;7.80;1.00;;;;;;4820115;28;20577;-78
2021/04/22 02:11:34;;;;;;;28.77;8.93;;;7.90;1.00;;;;;;4820082;28;20230;-75
2021/04/22 02:13:56;;;;;;;12.30;7.50;;;7.70;1.00;;;;;;4802884;28;20216;-77
2021/04/22 02:16:19;;;;;;;9.77;7.03;;;;;;;;;;4834954;28;20262;-76
2021/04/22 02:18:40;;;;;;;13.40;7.10;;;7.50;1.00;;;;;;4820333;28;20183;-76
2021/04/22 02:21:03;;;;;;;10.47;6.53;;;;;;;;;;4819170;28;20230;-75
2021/04/22 02:23:26;;;;;;;10.57;6.90;;;7.70;1.00;;;;;;4818039;28;20195;-76
2021/04/22 02:25:48;;;;;;;8.83;6.43;;;7.70;1.00;;;;;;4818286;28;20282;-75
2021/04/22 02:28:11;;;;;;;8.07;6.57;;;7.80;14.40;;;;;;4819198;28;20744;-76
2021/04/22 02:30:36;;;;;;;14.43;7.37;;;7.80;9.30;;;;;;4820240;28;20195;-76
2021/04/22 02:33:00;;;;;;;18.57;7.90;;;7.20;1.00;;;;;;4801223;28;20212;-76
2021/04/22 02:35:24;;;;;;;9.87;6.50;;;7.50;1.00;;;;;;4809213;28;20254;-76
2021/04/22 02:37:47;;;;;;;10.73;6.90;;;;;;;;;;4819120;28;20196;-76
2021/04/22 02:40:12;;;;;;;25.17;9.20;;;6.20;1.00;;;;;;4801697;28;20200;-78
2021/04/22 02:42:35;;;;;;;18.67;8.20;;;;;;;;;;4820452;28;20226;-76
2021/04/22 02:44:58;;;;;;;12.47;7.50;;;7.30;33.80;;;;;;4818776;28;20222;-76
2021/04/22 02:47:20;;;;;;;10.17;7.03;;;;;;;;;;4801956;28;20215;-75
2021/04/22 02:49:42;;;;;;;11.10;7.67;;;;;;;;;;4834912;28;20311;-74
2021/04/22 02:52:05;;;;;;;9.07;6.60;;;7.30;83.30;;;;;;4833976;28;20191;-75
2021/04/22 02:54:27;;;;;;;26.23;9.30;;;;;;;;;;4817707;28;20729;-76
2021/04/22 02:56:50;;;;;;;29.67;10.50;;;;;;;;;;4818718;28;20219;-77
2021/04/22 02:59:12;;;;;;;11.33;7.53;;;;;;;;;;4817907;28;20216;-76
2021/04/22 03:01:35;;;;;;;24.50;9.80;;;7.20;88.80;;;;;;4815277;28;20200;-75
2021/04/22 03:03:57;;;;;;;11.90;8.07;;;;;;;;;;4818323;28;20187;-75
2021/04/22 03:06:20;;;;;;;11.60;7.43;;;7.20;99.90;;;;;;4814392;28;20262;-75
2021/04/22 03:08:42;;;;;;;16.43;8.20;;;;;;;;;;4806903;28;20200;-76
2021/04/22 03:11:04;;;;;;;12.77;7.30;;;7.90;99.90;;;;;;4790789;28;20693;-75
2021/04/22 03:13:26;;;;;;;17.27;9.03;;;7.00;99.90;;;;;;4818181;28;20259;-75
2021/04/22 03:15:49;;;;;;;19.97;9.23;;;;;;;;;;4818748;28;20218;-76
2021/04/22 03:18:12;;;;;;;10.67;7.40;;;7.30;98.40;;;;;;4819013;28;20262;-75
2021/04/22 03:20:35;;;;;;;11.67;7.83;;;;;;;;;;4800585;28;20196;-75
2021/04/22 03:22:57;;;;;;;12.10;8.00;;;;;;;;;;4801700;28;20196;-76
2021/04/22 03:25:23;;;;;;;14.70;8.40;;;7.20;99.90;;;;;;4819739;28;20183;-75
2021/04/22 03:27:45;;;;;;;11.20;7.57;;;;;;;;;;4817798;28;20199;-78
2021/04/22 03:30:10;;;;;;;14.37;8.60;;;7.20;98.10;;;;;;4783466;28;20260;-76
2021/04/22 03:32:32;;;;;;;14.03;8.37;;;8.00;99.90;;;;;;4783095;28;20263;-76
2021/04/22 03:34:55;;;;;;;11.40;7.83;;;7.20;95.80;;;;;;4817268;28;20246;-76
2021/04/22 03:37:17;;;;;;;19.87;9.37;;;7.00;99.90;;;;;;4815767;28;20222;-77
2021/04/22 03:39:39;;;;;;;19.43;10.20;;;7.20;99.90;;;;;;4801265;28;20196;-72
2021/04/22 03:42:02;;;;;;;12.03;9.40;;;;;;;;;;4814416;28;20708;-76
2021/04/22 03:44:24;;;;;;;13.97;9.57;;;;;;;;;;4801655;28;20262;-75
2021/04/22 03:46:46;;;;;;;21.80;10.60;;;7.00;99.90;;;;;;4816842;28;20590;-74
2021/04/22 03:49:08;;;;;;;12.63;8.87;;;7.10;99.90;;;;;;4833195;28;20213;-75
2021/04/22 03:51:31;;;;;;;19.27;9.97;;;7.10;99.90;;;;;;4783767;28;20204;-75
2021/04/22 03:53:54;;;;;;;11.07;8.23;;;7.10;99.90;;;;;;4817111;28;20218;-74
2021/04/22 03:56:17;;;;;;;10.80;7.97;;;;;;;;;;4817804;28;20203;-74
2021/04/22 03:58:39;;;;;;;22.00;10.03;;;7.00;99.90;;;;;;4799208;28;20203;-77
2021/04/22 04:01:02;;;;;;;13.00;8.47;;;7.30;99.90;;;;;;4790214;28;20762;-76
2021/04/22 04:03:24;;;;;;;9.30;7.30;;;6.80;99.90;;;;;;4798807;28;20255;-76
2021/04/22 04:05:46;;;;;;;11.13;8.03;;;;;;;;;;4798701;28;20271;-77
2021/04/22 04:08:09;;;;;;;11.93;8.27;;;6.90;99.90;;;;;;4813637;28;20196;-75
2021/04/22 04:10:31;;;;;;;13.60;8.50;;;7.00;99.90;;;;;;4802076;28;20199;-75
2021/04/22 04:13:14;;;;;;;15.17;8.53;;;6.90;99.90;;;;;;4804466;28;20186;-76
2021/04/22 04:15:56;;;;;;;10.87;7.97;;;7.40;99.90;;;;;;4818440;28;20190;-76
2021/04/22 04:18:39;;;;;;;13.27;8.30;;;;;;;;;;4816849;28;20175;-75
2021/04/22 04:21:21;;;;;;;9.73;7.37;;;6.90;99.90;;;;;;4817465;28;20183;-75
2021/04/22 04:24:06;;;;;;;17.00;8.03;;;6.90;99.90;;;;;;4799870;28;20229;-76
2021/04/22 04:26:28;;;;;;;16.07;8.33;;;6.90;99.90;;;;;;4800149;28;20188;-74
2021/04/22 04:28:50;;;;;;;12.60;7.80;;;;;;;;;;4816477;28;20323;-75
2021/04/22 04:31:12;;;;;;;9.03;6.73;;;6.00;99.90;;;;;;4817390;28;20261;-73
2021/04/22 04:33:35;;;;;;;15.43;8.50;;;7.00;99.90;;;;;;4818772;28;20557;-75
2021/04/22 04:35:57;;;;;;;10.90;7.83;;;;;;;;;;4817717;28;20187;-75
2021/04/22 04:38:19;;;;;;;9.73;7.33;;;7.00;99.90;;;;;;4816432;28;20188;-75
2021/04/22 04:40:42;;;;;;;19.83;9.17;;;7.10;99.90;;;;;;4817321;28;20203;-76
2021/04/22 04:43:04;;;;;;;10.67;7.70;;;7.10;99.90;;;;;;4817192;28;20285;-73
2021/04/22 04:45:27;;;;;;;14.57;8.77;;;7.10;94.80;;;;;;4806066;28;20211;-75
2021/04/22 04:47:49;;;;;;;12.63;8.13;;;;;;;;;;4817325;28;20195;-73
2021/04/22 04:50:13;;;;;;;12.67;8.83;;;7.20;93.20;;;;;;4822297;28;20195;-75
2021/04/22 04:52:35;;;;;;;15.73;9.53;;;7.40;99.90;;;;;;4817054;28;20207;-75
2021/04/22 04:54:58;;;;;;;14.97;9.30;;;;;;;;;;4831074;28;20329;-73
2021/04/22 04:57:21;;;;;;;13.40;8.40;;;7.50;97.60;;;;;;4819409;28;20249;-75
2021/04/22 04:59:43;;;;;;;11.10;8.47;;;;;;;;;;4804156;28;20286;-75
2021/04/22 05:02:06;;;;;;;15.53;7.97;;;;;;;;;;4820364;28;20183;-75
2021/04/22 05:04:28;;;;;;;15.13;7.37;;;7.60;52.60;;;;;;4801111;28;20262;-75
2021/04/22 05:06:50;;;;;;;26.57;9.10;;;7.70;14.70;;;;;;4820644;28;20261;-76
2021/04/22 05:09:12;;;;;;;10.93;6.90;;;8.00;7.90;;;;;;4804092;28;20196;-73
2021/04/22 05:11:34;;;;;;;17.87;7.70;;;7.60;1.00;;;;;;4821928;28;20191;-75
2021/04/22 05:13:57;;;;;;;15.97;6.90;;;7.50;1.00;;;;;;4803573;28;20275;-73
2021/04/22 05:16:19;;;;;;;10.00;6.53;;;;;;;;;;4804395;28;20200;-74
2021/04/22 05:18:42;;;;;;;22.20;8.13;;;;;;;;;;4802073;28;20200;-76
2021/04/22 05:21:04;;;;;;;10.97;6.40;;;7.90;1.00;;;;;;4803540;28;20192;-74
2021/04/22 05:23:27;;;;;;;21.50;7.60;;;;;;;;;;4804483;28;20217;-73
2021/04/22 05:25:52;;;;;;;8.87;5.90;;;7.90;1.00;;;;;;4804905;28;20211;-77
2021/04/22 05:28:14;;;;;;;7.50;5.40;;;8.50;1.00;;;;;;4799888;28;20193;-75
2021/04/22 05:30:37;;;;;;;16.53;6.70;;;8.50;1.00;;;;;;4814090;28;20192;-74
2021/04/22 05:32:59;;;;;;;16.73;6.50;;;8.40;1.00;;;;;;4821477;28;20242;-75
2021/04/22 05:35:21;;;;;;;11.33;6.20;;;8.60;1.00;;;;;;4820082;28;20215;-77
2021/04/22 05:37:44;;;;;;;10.27;5.80;;;8.40;99.90;;;;;;4820616;28;20214;-77
2021/04/22 05:40:08;;;;;;;13.90;5.57;;;8.70;99.90;;;;;;4821373;28;20199;-74
2021/04/22 05:42:31;;;;;;;14.30;5.93;;;;;;;;;;4819232;28;20285;-83
2021/04/22 05:44:53;;;;;;;24.30;7.53;;;8.70;1.00;;;;;;4818374;28;20208;-82
2021/04/22 05:47:16;;;;;;;9.13;4.97;;;9.40;1.00;;;;;;4820327;28;20191;-75
2021/04/22 05:49:38;;;;;;;12.37;4.90;;;;;;;;;;4821741;28;20230;-81
2021/04/22 05:52:00;;;;;;;10.57;5.23;;;;;;;;;;4835303;28;20230;-83
2021/04/22 05:54:23;;;;;;;6.70;4.80;;;;;;;;;;4820482;28;20239;-75
2021/04/22 05:56:46;;;;;;;19.17;6.20;;;;;;;;;;4818884;28;20222;-81
2021/04/22 05:59:08;;;;;;;10.53;4.83;;;9.40;1.00;;;;;;4787835;28;20328;-81
2021/04/22 06:01:30;;;;;;;21.00;6.07;;;;;;;;;;4817118;28;20312;-76
2021/04/22 06:03:53;;;;;;;9.90;4.70;;;10.00;90.60;;;;;;4818767;28;20207;-82
2021/04/22 06:06:16;;;;;;;15.77;5.80;;;;;;;;;;4802564;28;20192;-75
2021/04/22 06:08:38;;;;;;;8.37;4.27;;;;;;;;;;4801393;28;20598;-81
2021/04/22 06:11:00;;;;;;;9.00;4.53;;;;;;;;;;4785110;28;20659;-81
2021/04/22 06:13:22;;;;;;;6.87;4.27;;;;;;;;;;4800296;28;20810;-83
2021/04/22 06:15:45;;;;;;;6.60;3.57;;;;;;;;;;4827009;28;20219;-81
2021/04/22 06:18:08;;;;;;;6.90;3.70;;;;;;;;;;4818209;28;20705;-82
2021/04/22 06:20:31;;;;;;;10.53;4.13;;;11.20;1.00;;;;;;4821228;28;20250;-81
2021/04/22 06:22:53;;;;;;;9.30;3.97;;;;;;;;;;4802761;28;20196;-73
2021/04/22 06:25:16;;;;;;;8.80;3.93;;;11.20;99.90;;;;;;4818768;28;20188;-79
2021/04/22 06:27:38;;;;;;;20.33;5.23;;;;;;;;;;4818264;28;20196;-82
2021/04/22 06:30:00;;;;;;;8.00;3.93;;;;;;;;;;4820802;28;20187;-73
2021/04/22 06:32:23;;;;;;;4.73;3.30;;;;;;;;;;4821270;28;20207;-77
2021/04/22 06:34:46;;;;;;;12.43;4.47;;;;;;;;;;4819941;28;20218;-80
2021/04/22 06:37:09;;;;;;;10.43;4.23;;;10.40;1.00;;;;;;4818657;28;20740;-83
2021/04/22 06:39:32;;;;;;;16.50;5.20;;;;;;;;;;4817563;28;20302;-75
2021/04/22 06:41:54;;;;;;;10.03;4.17;;;;;;;;;;4817579;28;20313;-85
2021/04/22 06:44:16;;;;;;;10.10;4.23;;;;;;;;;;4818795;28;20261;-72
2021/04/22 06:46:39;;;;;;;13.03;4.33;;;;;;;;;;4819692;28;20187;-78
2021/04/22 06:49:02;;;;;;;21.50;6.00;;;10.30;99.90;;;;;;4819399;28;20674;-73
2021/04/22 06:51:24;;;;;;;5.97;3.20;;;;;;;;;;4818603;28;20203;-78
2021/04/22 06:53:47;;;;;;;9.70;4.23;;;10.20;99.90;;;;;;4819060;28;20212;-83
2021/04/22 06:56:10;;;;;;;13.17;4.07;;;;;;;;;;4818132;28;20183;-82
2021/04/22 06:58:32;;;;;;;8.63;3.83;;;10.90;1.00;;;;;;4817733;28;20246;-80
2021/04/22 07:00:54;;;;;;;9.37;3.63;;;;;;;;;;4816715;28;20187;-77
2021/04/22 07:03:16;;;;;;;7.90;3.33;;;;;;;;;;4816670;28;20242;-74
2021/04/22 07:05:39;;;;;;;13.37;4.87;;;;;;;;;;4786828;28;20642;-72
2021/04/22 07:08:01;;;;;;;8.73;4.03;;;;;;;;;;4813226;28;20187;-76
2021/04/22 07:10:25;;;;;;;16.90;5.70;;;9.70;1.00;;;;;;4816911;28;20620;-76
2021/04/22 07:12:47;;;;;;;6.80;4.63;;;;;;;;;;4819748;28;20649;-75
2021/04/22 07:15:11;;;;;;;9.20;4.50;;;9.70;1.00;;;;;;4820218;28;20203;-83
2021/04/22 07:17:33;;;;;;;19.20;6.23;;;9.50;1.00;;;;;;4817014;28;20673;-76
2021/04/22 07:19:56;;;;;;;9.77;3.70;;;;;;;;;;4819386;28;20191;-74
2021/04/22 07:22:18;;;;;;;8.37;3.77;;;9.60;99.90;;;;;;4817203;28;20191;-75
2021/04/22 07:24:41;;;;;;;12.10;4.57;;;;;;;;;;4817750;28;20203;-78
2021/04/22 07:27:04;;;;;;;13.90;4.60;;;9.10;10.70;;;;;;4817100;28;20207;-74
2021/04/22 07:29:26;;;;;;;7.40;3.70;;;9.10;99.90;;;;;;4817394;28;20258;-76
2021/04/22 07:31:49;;;;;;;13.03;4.30;;;;;;;;;;4814113;28;20557;-77
2021/04/22 07:34:11;;;;;;;8.60;3.73;;;;;;;;;;4802820;28;20293;-78
2021/04/22 07:36:33;;;;;;;13.37;4.57;;;9.00;99.90;;;;;;4818068;28;20530;-74
2021/04/22 07:38:56;;;;;;;10.97;3.90;;;;;;;;;;4813378;28;20270;-74
2021/04/22 07:41:18;;;;;;;10.87;4.10;;;8.70;99.90;;;;;;4812810;28;20238;-76
2021/04/22 07:43:41;;;;;;;11.77;4.27;;;8.50;99.90;;;;;;4807963;28;20188;-79
2021/04/22 07:46:04;;;;;;;6.23;3.20;;;8.60;99.90;;;;;;4799811;28;20200;-77
2021/04/22 07:48:26;;;;;;;4.23;2.73;;;;;;;;;;4803361;28;20195;-80
2021/04/22 07:50:48;;;;;;;7.10;3.60;;;8.40;99.90;;;;;;4817134;28;20187;-76
2021/04/22 07:53:10;;;;;;;13.27;4.37;;;;;;;;;;4816434;28;20258;-74
2021/04/22 07:55:34;;;;;;;9.90;3.90;;;8.40;88.80;;;;;;4817954;28;20215;-76
2021/04/22 07:57:56;;;;;;;8.77;4.60;;;;;;;;;;4819161;28;20712;-76
2021/04/22 08:00:22;;;;;;;5.83;3.63;;;8.40;1.00;;;;;;4818250;28;20238;-75
2021/04/22 08:02:44;;;;;;;9.60;3.90;;;;;;;;;;4817846;28;20179;-86
2021/04/22 08:05:07;;;;;;;6.73;3.73;;;8.40;1.00;;;;;;4812186;28;20314;-76
2021/04/22 08:07:30;;;;;;;11.03;5.00;;;;;;;;;;4815729;28;20760;-75
2021/04/22 08:09:52;;;;;;;6.70;4.90;;;7.60;24.80;;;;;;4813679;28;20191;-76
2021/04/22 08:12:14;;;;;;;8.10;4.07;;;8.00;99.90;;;;;;4813309;28;20191;-82
2021/04/22 08:14:36;;;;;;;14.07;6.47;;;;;;;;;;4804226;28;20235;-84
2021/04/22 08:16:59;;;;;;;18.20;6.03;;;7.90;99.90;;;;;;4816733;28;20563;-75
2021/04/22 08:19:21;;;;;;;9.53;4.40;;;;;;;;;;4817315;28;20303;-78
2021/04/22 08:21:44;;;;;;;8.40;4.83;;;7.40;1.00;;;;;;4815824;28;20199;-75
2021/04/22 08:24:07;;;;;;;8.33;5.90;;;7.40;1.00;;;;;;4807754;28;20196;-76
2021/04/22 08:26:30;;;;;;;10.13;5.00;;;7.40;1.00;;;;;;4807462;28;20183;-77
2021/04/22 08:28:53;;;;;;;7.70;4.10;;;7.30;99.90;;;;;;4815116;28;20358;-75
2021/04/22 08:31:22;;;;;;;8.63;4.20;;;7.30;1.00;;;;;;4818102;28;20211;-75
2021/04/22 08:33:47;;;;;;;17.63;6.13;;;6.80;1.00;;;;;;4816255;28;20651;-77
2021/04/22 08:36:09;;;;;;;8.23;4.43;;;;;;;;;;4805745;28;20227;-79
2021/04/22 08:38:32;;;;;;;13.57;5.13;;;6.70;99.90;;;;;;4816080;28;20204;-78
2021/04/22 08:40:54;;;;;;;12.50;4.27;;;6.70;12.10;;;;;;4801001;28;20756;-77
2021/04/22 08:43:17;;;;;;;8.83;3.53;;;;;;;;;;4816682;28;20239;-76
2021/04/22 08:45:39;;;;;;;14.97;4.83;;;6.60;1.00;;;;;;4812697;28;20204;-75
2021/04/22 08:48:01;;;;;;;10.40;4.57;;;6.40;1.00;;;;;;4788969;28;20193;-75
2021/04/22 08:50:26;;;;;;;10.97;4.60;;;6.40;1.00;;;;;;4810482;28;20654;-80
2021/04/22 08:52:50;;;;;;;8.40;4.47;;;6.30;1.00;;;;;;4815198;28;20219;-82
2021/04/22 08:55:13;;;;;;;13.80;5.57;;;6.30;1.00;;;;;;4799820;28;20216;-78
2021/04/22 08:57:35;;;;;;;13.07;4.83;;;;;;;;;;4815325;28;20641;-77
2021/04/22 08:59:57;;;;;;;14.17;5.20;;;;;;;;;;4807302;28;20191;-81
2021/04/22 09:02:19;;;;;;;9.53;5.40;;;6.30;99.90;;;;;;4813255;28;20211;-84
2021/04/22 09:04:42;;;;;;;13.37;5.07;;;;;;;;;;4812254;28;20673;-82
2021/04/22 09:07:05;;;;;;;13.60;5.50;;;6.00;1.00;;;;;;4783308;28;20200;-76
2021/04/22 09:09:27;;;;;;;6.90;4.13;;;6.20;1.00;;;;;;4799741;28;20756;-80
2021/04/22 09:11:49;;;;;;;10.20;4.73;;;;;;;;;;4816110;28;20195;-78
2021/04/22 09:14:13;;;;;;;7.80;4.53;;;6.90;1.00;;;;;;4813709;28;20199;-80
2021/04/22 09:16:35;;;;;;;15.60;6.30;;;7.10;1.00;;;;;;4816941;28;20230;-85
2021/04/22 09:19:07;;;;;;;9.77;5.57;;;7.30;99.90;;;;;;4817679;28;20187;-76
2021/04/22 09:21:32;;;;;;;10.37;5.23;;;7.50;99.90;;;;;;4801902;28;20263;-79
2021/04/22 09:24:02;;;;;;;9.80;5.17;;;7.60;1.00;;;;;;4817328;28;20257;-87
2021/04/22 09:26:35;;;;;;;8.93;4.17;;;7.60;99.90;;;;;;4800451;28;20200;-75
2021/04/22 09:28:58;;;;;;;17.43;5.07;;;;;;;;;;4811279;28;20269;-75
2021/04/22 09:31:26;;;;;;;12.00;4.30;;;8.10;1.00;;;;;;4816270;28;20278;-75
2021/04/22 09:34:07;;;;;;;8.70;3.50;;;8.30;99.90;;;;;;4813364;28;20610;-76
2021/04/22 09:36:40;;;;;;;9.90;3.60;;;8.50;1.00;;;;;;4819481;28;20207;-76
2021/04/22 09:39:04;;;;;;;8.53;3.50;;;8.90;99.90;;;;;;4819572;28;20238;-75
2021/04/22 09:41:27;;;;;;;11.67;4.13;;;;;;;;;;4810113;28;20204;-80
2021/04/22 09:43:49;;;;;;;7.93;3.20;;;;;;;;;;4787681;28;20578;-75
2021/04/22 09:46:18;;;;;;;9.53;3.40;;;12.00;99.90;;;;;;4820196;28;20677;-75
2021/04/22 09:48:40;;;;;;;12.33;3.37;;;;;;;;;;4818936;28;20620;-84
2021/04/22 09:51:11;;;;;;;10.83;3.23;;;12.60;99.90;;;;;;4817954;28;20681;-83
2021/04/22 09:53:33;;;;;;;10.53;3.00;;;;;;;;;;4836797;28;20209;-84
2021/04/22 09:56:08;;;;;;;10.00;2.50;;;12.60;1.00;;;;;;4820986;28;20214;-80
2021/04/22 09:58:31;;;;;;;14.20;3.23;;;12.60;1.00;;;;;;4819057;28;20285;-79
2021/04/22 10:00:53;;;;;;;16.80;3.80;;;12.30;1.00;;;;;;4806085;28;20188;-74
2021/04/22 10:03:16;;;;;;;8.40;2.30;;;;;;;;;;4821391;28;20176;-74
2021/04/22 10:05:40;;;;;;;7.80;2.20;;;11.90;1.00;;;;;;4817978;28;20191;-74
2021/04/22 10:08:08;;;;;;;11.30;2.70;;;11.80;1.00;;;;;;4818898;28;20285;-78
2021/04/22 10:10:30;;;;;;;12.97;2.83;;;;;;;;;;4818929;28;20665;-78
2021/04/22 10:12:59;;;;;;;8.90;2.20;;;12.10;1.00;;;;;;4819300;28;20302;-74
2021/04/22 10:15:24;;;;;;;9.90;2.40;;;12.60;1.00;;;;;;4820251;28;20794;-76
2021/04/22 10:17:54;;;;;;;7.03;1.93;;;13.70;1.00;;;;;;4819194;28;20195;-75
2021/04/22 10:20:17;;;;;;;11.70;2.73;;;14.20;1.00;;;;;;4819092;28;20768;-81
2021/04/22 10:22:41;;;;;;;19.83;3.40;;;14.40;1.00;;;;;;4833830;28;20187;-75
2021/04/22 10:25:05;;;;;;;15.90;2.97;;;14.50;1.00;;;;;;4818835;28;20254;-81
2021/04/22 10:27:29;;;;;;;12.47;2.30;;;14.50;1.00;;;;;;4820163;28;20664;-79
2021/04/22 10:29:52;;;;;;;13.70;2.63;;;14.60;1.00;;;;;;4820491;28;20192;-76
2021/04/22 10:32:15;;;;;;;10.70;2.17;;;;;;;;;;4819368;28;20261;-76
2021/04/22 10:34:39;;;;;;;14.53;2.57;;;14.40;1.00;;;;;;4799974;28;20208;-74
2021/04/22 10:37:01;;;;;;;22.37;3.63;;;;;;;;;;4784808;28;20774;-73
2021/04/22 10:39:24;;;;;;;8.67;1.93;;;;;;;;;;4820260;28;20552;-77
2021/04/22 10:41:49;;;;;;;9.90;2.00;;;13.70;1.00;;;;;;4818652;28;20235;-78
2021/04/22 10:44:12;;;;;;;12.20;2.50;;;13.50;1.00;;;;;;4817024;28;20180;-74
2021/04/22 10:46:38;;;;;;;17.70;3.10;;;13.40;1.00;;;;;;4815985;28;20246;-75
2021/04/22 10:49:01;;;;;;;13.13;2.60;;;;;;;;;;4819309;28;20187;-74
2021/04/22 10:51:23;;;;;;;5.97;1.60;;;;;;;;;;4819199;28;20246;-80
2021/04/22 10:53:46;;;;;;;10.57;2.17;;;;;;;;;;4817938;28;20199;-75
2021/04/22 10:56:08;;;;;;;8.33;1.70;;;;;;;;;;4816511;28;20576;-75
2021/04/22 10:58:35;;;;;;;15.93;2.73;;;14.00;99.90;;;;;;4817972;28;20262;-80
2021/04/22 11:01:00;;;;;;;17.10;2.93;;;14.20;99.90;;;;;;4818334;28;20234;-74
2021/04/22 11:03:34;;;;;;;6.90;1.43;;;14.30;99.90;;;;;;4818551;28;20230;-76
2021/04/22 11:05:57;;;;;;;11.03;2.23;;;14.30;99.90;;;;;;4798629;28;20678;-77
2021/04/22 11:08:31;;;;;;;11.43;2.23;;;14.30;99.90;;;;;;4811982;28;20238;-74
2021/04/22 11:10:55;;;;;;;10.27;1.90;;;;;;;;;;4801481;28;20681;-80
2021/04/22 11:13:21;;;;;;;8.93;1.97;;;14.30;99.90;;;;;;4806980;28;20215;-76
2021/04/22 11:15:58;;;;;;;32.13;4.93;;;14.20;99.90;;;;;;4815283;28;20215;-81
2021/04/22 11:18:32;;;;;;;7.53;1.60;;;14.10;99.90;;;;;;4819327;28;20191;-77
2021/04/22 11:20:55;;;;;;;10.30;2.07;;;14.00;99.90;;;;;;4818529;28;20406;-74
2021/04/22 11:23:23;;;;;;;8.10;1.73;;;13.60;99.90;;;;;;4818487;28;20199;-78
2021/04/22 11:25:50;;;;;;;3.73;1.20;;;14.20;99.90;;;;;;4818404;28;20203;-73
2021/04/22 11:28:12;;;;;;;7.47;1.50;;;;;;;;;;4816865;28;20727;-74
2021/04/22 11:30:35;;;;;;;16.47;2.43;;;;;;;;;;4817632;28;20207;-75
2021/04/22 11:32:59;;;;;;;10.87;1.67;;;19.00;99.90;;;;;;4819500;28;20242;-77
2021/04/22 11:35:23;;;;;;;14.37;2.70;;;20.90;99.90;;;;;;4801057;28;20220;-80
2021/04/22 11:37:48;;;;;;;173.03;138.87;;;23.50;99.90;;;;;;4812410;28;20213;-79
2021/04/22 11:40:12;;;;;;;49.50;44.60;;;26.20;99.90;;;;;;4800868;28;20273;-74
2021/04/22 11:42:37;;;;;;;257.67;217.80;;;29.10;99.90;;;;;;4812758;28;20369;-80
2021/04/22 11:45:07;;;;;;;120.07;111.47;;;31.80;99.90;;;;;;4801353;28;20660;-76
2021/04/22 11:47:32;;;;;;;170.03;157.70;;;34.80;99.90;;;;;;4817564;28;20286;-81
2021/04/22 11:50:08;;;;;;;89.55;84.07;;;36.70;99.90;;;;;;4833120;28;20263;-79
2021/04/22 11:52:46;;;;;;;159.93;149.07;;;37.80;99.90;;;;;;4817560;28;20199;-80
2021/04/22 11:55:25;;;;;;;116.63;108.78;;;39.10;99.90;;;;;;4819035;28;20179;-77
2021/04/22 11:57:56;;;;;;;94.22;88.82;;;40.10;99.90;;;;;;4814992;28;20195;-80
2021/04/22 12:00:19;;;;;;;32.10;29.38;;;40.80;99.90;;;;;;4817511;28;20609;-77
2021/04/22 12:02:42;;;;;;;22.63;17.60;;;;;;;;;;4816601;28;20195;-79
2021/04/22 12:05:05;;;;;;;23.88;14.13;;;40.20;99.90;;;;;;4825809;28;20198;-87
2021/04/22 12:07:27;;;;;;;17.75;14.73;;;;;;;;;;4816587;28;20373;-85
2021/04/22 12:09:51;;;;;;;17.10;9.45;;;40.60;99.90;;;;;;4817714;28;20605;-80
2021/04/22 12:12:18;;;;;;;23.48;5.07;;;40.10;99.90;;;;;;4800934;28;20230;-77
2021/04/22 12:14:41;;;;;;;25.02;4.05;;;39.40;99.90;;;;;;4798650;28;20207;-76
2021/04/22 12:17:04;;;;;;;29.33;12.05;;;;;;;;;;4806178;28;20231;-78
2021/04/22 12:19:27;;;;;;;49.95;16.63;;;;;;;;;;4813519;28;20210;-73
2021/04/22 12:21:49;;;;;;;11.75;2.88;;;;;;;;;;4797880;28;20192;-83
2021/04/22 12:24:11;;;;;;;7.70;3.38;;;40.00;1.00;;;;;;4782637;28;20243;-75
2021/04/22 12:26:35;;;;;;;17.42;4.10;;;41.00;99.90;;;;;;4800466;28;20191;-83
2021/04/22 12:29:00;;;;;;;19.08;5.38;;;41.40;99.90;;;;;;4811406;28;20731;-78
2021/04/22 12:31:24;;;;;;;22.20;8.85;;;42.20;99.90;;;;;;4800490;28;20271;-84
2021/04/22 12:33:47;;;;;;;16.67;5.20;;;;;;;;;;4816115;28;20651;-83
2021/04/22 12:36:11;;;;;;;7.78;2.25;;;42.20;99.90;;;;;;4818971;28;20245;-84
2021/04/22 12:38:35;;;;;;;19.92;3.50;;;;;;;;;;4814860;28;20257;-82
2021/04/22 12:41:00;;;;;;;25.98;6.32;;;41.90;99.90;;;;;;4798396;28;20232;-79
2021/04/22 12:43:22;;;;;;;8.18;1.63;;;;;;;;;;4792856;28;20227;-84
2021/04/22 12:45:45;;;;;;;19.65;3.72;;;42.50;99.90;;;;;;4815235;28;20700;-81
2021/04/22 12:48:09;;;;;;;10.20;5.03;;;43.30;99.90;;;;;;4818326;28;20245;-79
2021/04/22 12:50:40;;;;;;;19.27;9.38;;;44.30;1.00;;;;;;4817284;28;20756;-77
2021/04/22 12:53:05;;;;;;;30.05;12.70;;;44.80;99.90;;;;;;4815700;28;20211;-78
2021/04/22 12:55:28;;;;;;;15.50;6.70;;;;;;;;;;4816864;28;20234;-75
2021/04/22 12:57:52;;;;;;;19.20;8.85;;;45.60;99.90;;;;;;4818171;28;20234;-83
2021/04/22 13:00:15;;;;;;;12.55;9.00;;;45.70;1.00;;;;;;4816368;28;20211;-75
2021/04/22 13:02:38;;;;;;;26.48;9.70;;;46.30;99.90;;;;;;4814546;28;20221;-88
2021/04/22 13:05:03;;;;;;;18.90;11.98;;;46.70;99.90;;;;;;4806056;28;20234;-81